»·PEaware :: N328AP KLAX-KSAN

N328AP :: KLAX-KSAN

FLIGHT INFORMATION

Flight Status: Arrived
Operator: Privately registered:
United States
More flights under this callsign
Pilot: Adam P. (15512)
Aircraft: BOMBARDIER BD-100 CHALLENGER 300
(CL30)
More flights by this aircraft type
Origin: KLAX Los Angeles Intl
United States
Destination: KSAN San Diego Intl-Lindbergh
United States
More flights between these airports :: More routes between these airports
Route: +KARVR6 KARVR HUBRD HUBRD1
File this flight plan on PilotEdge
Remarks:
Altitude:
(Current/Filed)
11,000ft
Speed:
(Current/Filed)
468kts
Departed: 03-Oct-17 07:58 PM
Arrived: 03-Oct-17 08:40 PM
Distance/Time
Traveled:
95nm/0:42
Distance/Time
To Go:
Arrived

Flight Plot

Page will automatically refresh every two minutes.

Flight plan parsing failed; only flown route is shown


Map Options




Map Legend


Flown Route
Filed Route
Departure Airport
Arrival Airport
Navaid (VOR, NDB)
Fix

Horizontal Profiles

Position Reports

Time Latitude Longitude Heading Altitude Ground
Speed
03-Oct-17 19:41 33.932678 -118.399140 21 114ft 0kts
03-Oct-17 19:42 33.932678 -118.399140 21 114ft 0kts
03-Oct-17 19:43 33.932678 -118.399140 21 114ft 0kts
03-Oct-17 19:44 33.932678 -118.399140 21 114ft 0kts
03-Oct-17 19:45 33.932678 -118.399140 21 114ft 0kts
03-Oct-17 19:46 33.932678 -118.399140 21 114ft 0kts
03-Oct-17 19:47 33.932678 -118.399140 21 114ft 0kts
03-Oct-17 19:48 33.932678 -118.399140 21 114ft 0kts
03-Oct-17 19:49 33.932678 -118.399140 21 114ft 0kts
03-Oct-17 19:50 33.932678 -118.399140 21 114ft 0kts
03-Oct-17 19:51 33.932678 -118.399140 21 114ft 0kts
03-Oct-17 19:52 33.932678 -118.399140 21 114ft 0kts
03-Oct-17 19:53 33.932678 -118.399140 21 114ft 0kts
03-Oct-17 19:54 33.932678 -118.399140 21 114ft 0kts
03-Oct-17 19:55 33.932678 -118.399140 21 114ft 0kts
03-Oct-17 19:56 33.932678 -118.399140 21 114ft 0kts
03-Oct-17 19:57 33.934617 -118.397685 85 111ft 15kts
03-Oct-17 19:58 33.935218 -118.391630 83 105ft 22kts
03-Oct-17 19:59 33.935840 -118.385566 83 102ft 13kts
03-Oct-17 20:00 33.936136 -118.383089 69 98ft 0kts
03-Oct-17 20:01 33.936277 -118.382839 38 99ft 11kts
03-Oct-17 20:02 33.935915 -118.396559 261 332ft 161kts
03-Oct-17 20:03 33.916868 -118.470624 235 3055ft 290kts
03-Oct-17 20:04 33.863412 -118.527766 180 6392ft 300kts
03-Oct-17 20:05 33.778614 -118.523981 181 8478ft 319kts
03-Oct-17 20:06 33.691905 -118.499945 138 11004ft 365kts
03-Oct-17 20:07 33.626830 -118.414693 134 10988ft 315kts
03-Oct-17 20:08 33.570976 -118.336464 133 10997ft 309kts
03-Oct-17 20:09 33.533916 -118.244032 113 10989ft 313kts
03-Oct-17 20:10 33.512660 -118.143961 92 10994ft 315kts
03-Oct-17 20:11 33.511039 -118.039239 90 10987ft 315kts
03-Oct-17 20:12 33.510346 -117.934547 90 10989ft 316kts
03-Oct-17 20:13 33.509870 -117.830076 90 10991ft 316kts
03-Oct-17 20:14 33.508227 -117.725588 104 10973ft 315kts
03-Oct-17 20:15 33.444506 -117.666591 158 10982ft 282kts
03-Oct-17 20:16 33.374081 -117.630053 162 10992ft 276kts
03-Oct-17 20:17 33.303171 -117.596755 163 10992ft 275kts
03-Oct-17 20:18 33.238041 -117.549029 141 10966ft 283kts
03-Oct-17 20:19 33.179833 -117.486317 141 10965ft 283kts
03-Oct-17 20:20 33.121677 -117.423533 141 10965ft 283kts
03-Oct-17 20:21 33.064199 -117.361536 141 10965ft 280kts
03-Oct-17 20:22 32.999400 -117.321092 161 10132ft 268kts
03-Oct-17 20:23 32.932143 -117.289711 161 8247ft 259kts
03-Oct-17 20:24 32.867253 -117.260421 161 5931ft 254kts
03-Oct-17 20:25 32.802387 -117.231737 161 4973ft 250kts
03-Oct-17 20:26 32.773462 -117.160657 101 4972ft 256kts
03-Oct-17 20:27 32.759882 -117.079201 101 4959ft 238kts
03-Oct-17 20:28 32.747199 -117.003078 101 4975ft 235kts
03-Oct-17 20:29 32.734597 -116.927788 101 4976ft 234kts
03-Oct-17 20:30 32.724040 -116.864957 101 4977ft 234kts
03-Oct-17 20:31 32.709253 -116.776679 101 4982ft 234kts
03-Oct-17 20:32 32.696686 -116.701065 101 4988ft 234kts
03-Oct-17 20:33 32.683182 -116.625951 119 4976ft 232kts
03-Oct-17 20:34 32.642422 -116.629182 252 5000ft 219kts
03-Oct-17 20:35 32.631600 -116.712313 261 4993ft 219kts
03-Oct-17 20:36 32.622794 -116.783398 261 4986ft 219kts
03-Oct-17 20:37 32.617720 -116.854565 294 4965ft 219kts
03-Oct-17 20:38 32.650335 -116.915406 301 4973ft 220kts
03-Oct-17 20:39 32.677549 -116.965733 298 4972ft 220kts
03-Oct-17 20:40 32.694103 -117.028302 285 4737ft 187kts
03-Oct-17 20:41 32.708278 -117.085885 285 3143ft 167kts
03-Oct-17 20:42 32.720162 -117.134731 284 1246ft 146kts
03-Oct-17 20:43 32.730337 -117.176572 286 127ft 132kts
03-Oct-17 20:44 32.734995 -117.198623 251 16ft 16kts
03-Oct-17 20:45 32.734755 -117.198861 139 16ft 5kts
03-Oct-17 20:46 32.733612 -117.194151 106 20ft 16kts
03-Oct-17 20:47 32.731664 -117.191856 47 17ft 11kts
03-Oct-17 20:48 32.732082 -117.191853 283 17ft 0kts
03-Oct-17 20:49 32.732082 -117.191853 283 17ft 0kts
03-Oct-17 20:50 32.732082 -117.191853 283 17ft 0kts
03-Oct-17 20:51 32.732082 -117.191853 283 17ft 0kts
03-Oct-17 20:52 32.732082 -117.191853 283 17ft 0kts
03-Oct-17 20:53 32.732082 -117.191853 283 17ft 0kts

Navigation Log

Ident Type
Flight plan parsing failed, navigation log unavailable